Time;durP1;ratioP1;P1;durP2;ratioP2;P2;SDS_P1;SDS_P2;PMS_P1;PMS_P2;Temp;Humidity;BMP_temperature;BMP_pressure;BME280_temperature;BME280_humidity;BME280_pressure;Samples;Min_cycle;Max_cycle;Signal;HPM_P1;HPM_P2
2024/02/08 00:04:22;;;;;;;;;;;7.10;99.90;;;;;;21196069;28;19977;-81
2024/02/08 00:14:23;;;;;;;;;;;7.10;99.90;;;;;;21193145;28;19919;-79
2024/02/08 00:24:24;;;;;;;;;;;7.10;99.90;;;;;;21182571;28;20011;-79
2024/02/08 00:34:25;;;;;;;;;;;7.10;99.90;;;;;;21172756;28;19923;-79
2024/02/08 00:44:27;;;;;;;;;;;7.10;99.90;;;;;;21175997;28;20440;-81
2024/02/08 00:54:28;;;;;;;;;;;7.10;99.90;;;;;;21151053;28;19920;-78
2024/02/08 01:04:28;;;;;;;;;;;7.10;99.90;;;;;;21148964;28;20449;-81
2024/02/08 01:14:30;;;;;;;;;;;7.20;99.90;;;;;;21145599;28;19923;-78
2024/02/08 01:24:31;;;;;;;;;;;7.20;99.90;;;;;;21143658;28;19911;-79
2024/02/08 01:34:31;;;;;;;;;;;7.30;99.90;;;;;;21152915;28;20006;-79
2024/02/08 01:44:32;;;;;;;;;;;7.30;99.90;;;;;;21141882;28;20393;-81
2024/02/08 01:54:33;;;;;;;;;;;7.30;99.90;;;;;;21144167;27;19963;-81
2024/02/08 02:04:34;;;;;;;;;;;7.30;99.90;;;;;;21151191;27;19958;-79
2024/02/08 02:14:38;;;;;;;;;;;7.20;99.90;;;;;;21141076;28;19942;-80
2024/02/08 02:24:43;;;;;;;;;;;7.30;99.90;;;;;;21128603;28;19912;-81
2024/02/08 02:34:44;;;;;;;;;;;7.30;99.90;;;;;;21130563;28;19943;-82
2024/02/08 02:44:44;;;;;;;;;;;7.30;99.90;;;;;;21145851;28;19919;-81
2024/02/08 02:54:45;;;;;;;;;;;7.10;99.90;;;;;;21139828;28;19916;-79
2024/02/08 03:04:46;;;;;;;;;;;7.10;99.90;;;;;;21125837;28;19915;-80
2024/02/08 03:14:57;;;;;;;;;;;7.10;99.90;;;;;;21128051;28;20350;-81
2024/02/08 03:24:58;;;;;;;;;;;7.10;99.90;;;;;;21153021;28;19919;-79
2024/02/08 03:34:59;;;;;;;;;;;7.10;99.90;;;;;;21124442;28;20390;-81
2024/02/08 03:45:00;;;;;;;;;;;7.00;99.90;;;;;;21138188;28;20431;-81
2024/02/08 03:55:01;;;;;;;;;;;7.20;99.90;;;;;;21144383;28;19916;-81
2024/02/08 04:05:06;;;;;;;;;;;7.20;99.90;;;;;;21142637;28;20298;-79
2024/02/08 04:56:23;;;;;;;;;;;7.20;99.90;;;;;;21146367;28;19915;-80
2024/02/08 05:06:25;;;;;;;;;;;7.10;99.90;;;;;;21152088;28;19941;-80
2024/02/08 05:16:26;;;;;;;;;;;7.10;99.90;;;;;;21141234;28;19916;-79
2024/02/08 05:26:31;;;;;;;;;;;7.10;99.90;;;;;;21153820;27;19918;-81
2024/02/08 05:36:32;;;;;;;;;;;7.10;99.90;;;;;;21154604;28;19922;-80
2024/02/08 05:46:39;;;;;;;;;;;7.10;99.90;;;;;;21150900;28;20386;-80
2024/02/08 05:56:39;;;;;;;;;;;7.10;99.90;;;;;;21131784;28;20390;-81
2024/02/08 06:06:52;;;;;;;;;;;7.20;99.90;;;;;;21156041;28;19955;-80
2024/02/08 06:16:57;;;;;;;;;;;7.30;99.90;;;;;;21147072;28;19989;-81
2024/02/08 06:27:13;;;;;;;;;;;7.30;99.90;;;;;;21132284;28;20010;-81
2024/02/08 06:37:26;;;;;;;;;;;7.30;99.90;;;;;;21163844;28;19923;-81
2024/02/08 07:49:41;;;;;;;;;;;7.50;99.90;;;;;;21150894;28;19919;-77
2024/02/08 07:59:42;;;;;;;;;;;7.60;99.90;;;;;;21164130;28;19923;-80
2024/02/08 08:09:46;;;;;;;;;;;7.60;99.90;;;;;;21151746;28;19919;-82
2024/02/08 08:19:47;;;;;;;;;;;7.80;99.90;;;;;;21112846;28;19916;-80
2024/02/08 08:29:49;;;;;;;;;;;8.00;99.90;;;;;;21149949;28;19973;-80
2024/02/08 08:50:31;;;;;;;;;;;8.10;99.90;;;;;;21129818;28;19918;-81
2024/02/08 09:00:32;;;;;;;;;;;8.20;99.90;;;;;;21146495;28;19940;-81
2024/02/08 09:10:34;;;;;;;;;;;8.20;99.90;;;;;;21153647;28;19935;-80
2024/02/08 09:20:37;;;;;;;;;;;8.40;99.90;;;;;;21152333;28;19912;-80
2024/02/08 09:30:37;;;;;;;;;;;8.50;99.90;;;;;;21147839;28;20358;-81
2024/02/08 09:40:45;;;;;;;;;;;8.40;99.90;;;;;;21172124;28;19912;-82
2024/02/08 09:50:53;;;;;;;;;;;8.60;99.90;;;;;;21108468;28;20061;-83
2024/02/08 10:00:57;;;;;;;;;;;8.50;99.90;;;;;;21091844;28;19958;-80
2024/02/08 10:21:35;;;;;;;;;;;8.70;99.90;;;;;;21159985;28;19912;-83
2024/02/08 10:31:37;;;;;;;;;;;8.80;99.90;;;;;;21150461;28;19920;-82
2024/02/08 10:52:02;;;;;;;;;;;9.10;99.90;;;;;;21160483;28;20391;-81
2024/02/08 11:02:31;;;;;;;;;;;9.20;99.90;;;;;;21159455;28;20504;-81
2024/02/08 11:12:32;;;;;;;;;;;9.20;99.90;;;;;;21138169;28;19915;-80
2024/02/08 11:22:42;;;;;;;;;;;9.40;99.90;;;;;;21181024;28;19920;-82
2024/02/08 11:32:53;;;;;;;;;;;9.50;99.90;;;;;;21183665;28;19919;-79
2024/02/08 11:42:59;;;;;;;;;;;9.60;99.90;;;;;;21115720;28;19916;-80
2024/02/08 11:53:04;;;;;;;;;;;9.50;99.90;;;;;;21121139;28;19916;-82
2024/02/08 12:03:05;;;;;;;;;;;9.70;99.90;;;;;;21128744;28;19951;-82
2024/02/08 12:13:05;;;;;;;;;;;9.90;99.90;;;;;;21144823;28;19916;-79
2024/02/08 12:23:06;;;;;;;;;;;10.00;99.90;;;;;;21136584;28;19958;-81
2024/02/08 12:33:09;;;;;;;;;;;10.20;99.90;;;;;;21152593;28;19919;-81
2024/02/08 12:43:10;;;;;;;;;;;10.40;99.90;;;;;;21160500;28;20379;-78
2024/02/08 12:53:12;;;;;;;;;;;10.90;99.90;;;;;;21150593;28;19916;-79
2024/02/08 13:03:15;;;;;;;;;;;11.20;99.90;;;;;;21148688;28;20379;-81
2024/02/08 13:13:23;;;;;;;;;;;11.40;99.90;;;;;;21149051;28;19923;-81
2024/02/08 13:23:24;;;;;;;;;;;12.10;99.90;;;;;;21135326;28;20018;-80
2024/02/08 13:33:28;;;;;;;;;;;12.00;99.90;;;;;;21154478;28;19923;-78
2024/02/08 13:43:30;;;;;;;;;;;11.90;99.90;;;;;;21177811;28;19911;-80
2024/02/08 13:53:31;;;;;;;;;;;11.70;99.90;;;;;;21131397;28;19916;-80
2024/02/08 14:03:34;;;;;;;;;;;11.50;99.90;;;;;;21147528;28;20002;-79
2024/02/08 14:13:38;;;;;;;;;;;11.60;99.90;;;;;;21155212;28;19916;-78
2024/02/08 14:23:40;;;;;;;;;;;11.80;99.90;;;;;;21236186;28;19957;-79
2024/02/08 14:33:41;;;;;;;;;;;12.30;99.90;;;;;;21176009;28;20446;-80
2024/02/08 14:43:46;;;;;;;;;;;12.90;99.90;;;;;;21145446;28;19911;-80
2024/02/08 14:53:47;;;;;;;;;;;12.70;99.90;;;;;;21133098;28;19916;-80
2024/02/08 15:03:51;;;;;;;;;;;12.40;99.90;;;;;;21111390;28;20401;-79
2024/02/08 15:13:55;;;;;;;;;;;11.90;99.90;;;;;;21148704;28;19916;-82
2024/02/08 15:34:20;;;;;;;;;;;11.70;99.90;;;;;;21140138;28;19915;-80
2024/02/08 15:44:33;;;;;;;;;;;11.40;99.90;;;;;;21159546;28;19912;-79
2024/02/08 15:54:38;;;;;;;;;;;11.30;99.90;;;;;;21156184;28;19919;-80
2024/02/08 16:04:45;;;;;;;;;;;11.00;99.90;;;;;;21167166;28;19916;-78
2024/02/08 16:14:49;;;;;;;;;;;10.80;99.90;;;;;;21177455;28;20319;-78
2024/02/08 16:24:53;;;;;;;;;;;11.00;99.90;;;;;;21185295;28;19912;-78
2024/02/08 16:34:59;;;;;;;;;;;11.00;99.90;;;;;;21148101;28;19916;-77
2024/02/08 16:45:17;;;;;;;;;;;10.40;99.90;;;;;;21162737;28;19915;-78
2024/02/08 16:55:22;;;;;;;;;;;10.10;99.90;;;;;;21184878;28;19916;-78
2024/02/08 17:05:28;;;;;;;;;;;9.90;99.90;;;;;;21177412;28;19923;-78
2024/02/08 17:15:28;;;;;;;;;;;9.60;99.90;;;;;;21174276;28;19923;-78
2024/02/08 17:25:41;;;;;;;;;;;9.60;99.90;;;;;;21143885;28;20394;-78
2024/02/08 17:35:43;;;;;;;;;;;9.60;99.90;;;;;;21198765;28;19916;-79
2024/02/08 17:45:54;;;;;;;;;;;9.50;99.90;;;;;;21193060;28;20290;-79
2024/02/08 17:56:01;;;;;;;;;;;9.30;99.90;;;;;;21193217;28;19936;-79
2024/02/08 18:06:05;;;;;;;;;;;9.30;99.90;;;;;;21198491;28;19916;-79
2024/02/08 18:16:13;;;;;;;;;;;9.30;99.90;;;;;;21190570;28;19927;-80
2024/02/08 18:26:27;;;;;;;;;;;9.30;99.90;;;;;;21182459;28;19915;-80
2024/02/08 18:36:27;;;;;;;;;;;9.20;99.90;;;;;;21187866;28;19959;-79
2024/02/08 18:46:28;;;;;;;;;;;9.20;99.90;;;;;;21195188;28;19965;-80
2024/02/08 18:56:31;;;;;;;;;;;9.10;99.90;;;;;;21189688;28;19916;-79
2024/02/08 19:06:34;;;;;;;;;;;9.10;99.90;;;;;;21200317;28;19916;-79
2024/02/08 19:16:39;;;;;;;;;;;9.10;99.90;;;;;;21194908;28;19937;-79
2024/02/08 19:26:42;;;;;;;;;;;9.10;99.90;;;;;;21193179;28;20409;-79
2024/02/08 19:36:51;;;;;;;;;;;9.10;99.90;;;;;;21177231;28;20006;-78
2024/02/08 19:46:53;;;;;;;;;;;9.10;99.90;;;;;;21187377;28;19918;-79
2024/02/08 19:56:53;;;;;;;;;;;9.00;99.90;;;;;;21191642;28;19915;-78
2024/02/08 20:06:58;;;;;;;;;;;9.00;99.90;;;;;;21196473;28;20385;-78
2024/02/08 20:17:02;;;;;;;;;;;8.90;99.90;;;;;;21197451;28;19962;-79
2024/02/08 20:27:07;;;;;;;;;;;8.90;99.90;;;;;;21198996;28;19995;-77
2024/02/08 20:37:14;;;;;;;;;;;8.80;99.90;;;;;;21195705;28;20309;-80
2024/02/08 20:47:14;;;;;;;;;;;8.70;99.90;;;;;;21214599;28;19968;-80
2024/02/08 20:57:17;;;;;;;;;;;8.70;99.90;;;;;;21205495;27;19916;-80
2024/02/08 21:07:20;;;;;;;;;;;8.60;99.90;;;;;;21196403;28;19916;-80
2024/02/08 21:17:28;;;;;;;;;;;8.60;99.90;;;;;;21202679;28;19948;-80
2024/02/08 21:27:33;;;;;;;;;;;8.50;99.90;;;;;;21212128;28;19911;-80
2024/02/08 21:37:34;;;;;;;;;;;8.60;99.90;;;;;;21216320;28;19916;-80
2024/02/08 21:47:39;;;;;;;;;;;8.60;99.90;;;;;;21205112;28;19922;-80
2024/02/08 21:57:40;;;;;;;;;;;8.60;99.90;;;;;;21214325;28;19966;-79
2024/02/08 22:07:42;;;;;;;;;;;8.30;99.90;;;;;;21219890;28;19911;-81
2024/02/08 22:17:46;;;;;;;;;;;8.40;99.90;;;;;;21222027;28;20339;-80
2024/02/08 22:27:47;;;;;;;;;;;8.40;99.90;;;;;;21215067;27;19911;-80
2024/02/08 22:37:50;;;;;;;;;;;8.40;99.90;;;;;;21216183;28;19920;-81
2024/02/08 22:47:52;;;;;;;;;;;8.40;99.90;;;;;;21218600;28;20011;-77
2024/02/08 22:57:55;;;;;;;;;;;8.40;99.90;;;;;;21172977;28;19927;-80
2024/02/08 23:08:00;;;;;;;;;;;8.30;99.90;;;;;;21164517;28;19931;-80
2024/02/08 23:18:02;;;;;;;;;;;8.30;99.90;;;;;;21216834;28;19926;-81
2024/02/08 23:28:03;;;;;;;;;;;8.30;99.90;;;;;;21207607;28;20024;-79
2024/02/08 23:38:05;;;;;;;;;;;8.30;99.90;;;;;;21204957;28;19923;-79
2024/02/08 23:48:06;;;;;;;;;;;8.30;99.90;;;;;;21201971;28;19912;-80
2024/02/08 23:58:10;;;;;;;;;;;8.40;99.90;;;;;;21201657;28;20014;-79
